createdAt,value
2019-05-08T00:00:39.572Z,20.28
2019-05-08T00:01:39.601Z,20.21
2019-05-08T00:02:41.691Z,20.28
2019-05-08T00:03:39.674Z,20.28
2019-05-08T00:04:39.738Z,20.35
2019-05-08T00:05:41.985Z,20.28
2019-05-08T00:06:42.268Z,20.28
2019-05-08T00:07:39.893Z,20.30
2019-05-08T00:08:39.914Z,20.27
2019-05-08T00:09:39.944Z,20.28
2019-05-08T00:10:39.987Z,20.30
2019-05-08T00:11:40.021Z,20.28
2019-05-08T00:12:40.110Z,20.25
2019-05-08T00:13:42.322Z,20.27
2019-05-08T00:14:42.446Z,20.24
2019-05-08T00:15:40.199Z,20.38
2019-05-08T00:16:42.396Z,20.27
2019-05-08T00:17:42.614Z,20.30
2019-05-08T00:18:40.336Z,20.24
2019-05-08T00:19:42.651Z,20.28
2019-05-08T00:20:42.710Z,20.33
2019-05-08T00:21:42.574Z,20.34
2019-05-08T00:22:42.572Z,20.28
2019-05-08T00:23:42.526Z,20.28
2019-05-08T00:24:42.932Z,20.24
2019-05-08T00:25:42.237Z,20.25
2019-05-08T00:26:42.233Z,20.23
2019-05-08T00:27:42.253Z,20.24
2019-05-08T00:28:42.613Z,20.28
2019-05-08T00:29:42.490Z,20.25
2019-05-08T00:30:42.387Z,20.20
2019-05-08T00:31:42.155Z,20.28
2019-05-08T00:32:42.096Z,20.30
2019-05-08T00:33:41.911Z,20.31
2019-05-08T00:34:42.906Z,20.41
2019-05-08T00:35:42.123Z,20.35
2019-05-08T00:36:42.815Z,20.39
2019-05-08T00:37:43.220Z,20.33
2019-05-08T00:38:42.080Z,20.33
2019-05-08T00:39:42.080Z,20.35
2019-05-08T00:40:42.048Z,20.38
2019-05-08T00:41:42.875Z,20.35
2019-05-08T00:42:43.191Z,20.31
2019-05-08T00:43:41.973Z,20.42
2019-05-08T00:44:42.442Z,20.43
2019-05-08T00:45:42.032Z,20.33
2019-05-08T00:46:42.741Z,20.30
2019-05-08T00:47:42.931Z,20.20
2019-05-08T00:48:42.090Z,20.27
2019-05-08T00:49:42.349Z,20.23
2019-05-08T00:50:42.267Z,20.21
2019-05-08T00:51:42.468Z,20.23
2019-05-08T00:52:42.143Z,20.18
2019-05-08T00:53:42.638Z,20.06
2019-05-08T00:54:43.089Z,20.16
2019-05-08T00:55:41.976Z,20.03
2019-05-08T00:56:42.158Z,20.05
2019-05-08T00:57:43.679Z,20.09
2019-05-08T00:58:42.099Z,19.98
2019-05-08T00:59:42.493Z,20.03
2019-05-08T01:00:42.567Z,19.97
2019-05-08T01:01:43.106Z,20.05
2019-05-08T01:02:42.262Z,20.03
2019-05-08T01:03:42.334Z,19.97
2019-05-08T01:04:42.553Z,19.95
2019-05-08T01:05:42.938Z,19.95
2019-05-08T01:06:43.025Z,19.86
2019-05-08T01:07:43.027Z,19.88
2019-05-08T01:08:43.047Z,19.86
2019-05-08T01:09:42.606Z,19.87
2019-05-08T01:10:42.769Z,19.79
2019-05-08T01:11:42.690Z,19.78
2019-05-08T01:12:43.059Z,19.78
2019-05-08T01:13:42.786Z,19.80
2019-05-08T01:14:45.626Z,19.86
2019-05-08T01:15:42.837Z,19.80
2019-05-08T01:16:42.840Z,19.84
2019-05-08T01:17:43.182Z,19.91
2019-05-08T01:18:43.111Z,19.79
2019-05-08T01:19:42.992Z,19.88
2019-05-08T01:20:43.063Z,19.87
2019-05-08T01:21:43.076Z,19.88
2019-05-08T01:22:43.115Z,19.88
2019-05-08T01:23:43.179Z,19.93
2019-05-08T01:24:43.248Z,19.94
2019-05-08T01:25:43.453Z,19.88
2019-05-08T01:26:43.301Z,19.97
2019-05-08T01:27:51.985Z,19.94
2019-05-08T01:28:43.402Z,20.02
2019-05-08T01:29:43.410Z,20.08
2019-05-08T01:30:43.471Z,19.95
2019-05-08T01:31:43.533Z,20.03
2019-05-08T01:32:43.566Z,20.03
2019-05-08T01:33:43.583Z,20.03
2019-05-08T01:34:43.659Z,20.08
2019-05-08T01:35:43.688Z,20.06
2019-05-08T01:36:43.727Z,20.12
2019-05-08T01:37:44.147Z,20.13
2019-05-08T01:38:43.841Z,20.10
2019-05-08T01:39:43.917Z,20.12
2019-05-08T01:40:43.909Z,20.10
2019-05-08T01:41:43.974Z,20.08
2019-05-08T01:42:44.009Z,20.15
2019-05-08T01:43:44.110Z,20.15
2019-05-08T01:44:44.090Z,20.13
2019-05-08T01:45:44.135Z,20.13
2019-05-08T01:46:44.172Z,20.00
2019-05-08T01:47:44.204Z,20.09
2019-05-08T01:48:44.295Z,19.97
2019-05-08T01:49:44.308Z,20.06
2019-05-08T01:50:44.326Z,19.97
2019-05-08T01:51:44.399Z,19.95
2019-05-08T01:52:44.441Z,19.93
2019-05-08T01:53:44.519Z,19.97
2019-05-08T01:54:44.515Z,19.91
2019-05-08T01:55:44.572Z,19.95
2019-05-08T01:56:44.603Z,20.03
2019-05-08T01:57:44.666Z,20.02
2019-05-08T01:58:44.743Z,20.02
2019-05-08T01:59:44.785Z,19.98
2019-05-08T02:00:44.767Z,20.03
2019-05-08T02:01:44.823Z,19.93
2019-05-08T02:02:44.858Z,19.98
2019-05-08T02:03:44.901Z,20.05
2019-05-08T02:04:44.937Z,20.09
2019-05-08T02:05:44.994Z,20.00
2019-05-08T02:06:45.044Z,20.02
2019-05-08T02:07:45.151Z,20.10
2019-05-08T02:08:45.147Z,20.02
2019-05-08T02:09:45.185Z,20.02
2019-05-08T02:10:45.231Z,20.10
2019-05-08T02:11:45.261Z,20.15
2019-05-08T02:12:45.307Z,20.15
2019-05-08T02:13:45.346Z,20.16
2019-05-08T02:14:45.402Z,20.18
2019-05-08T02:15:45.426Z,20.10
2019-05-08T02:16:45.509Z,20.06
2019-05-08T02:17:45.577Z,20.05
2019-05-08T02:18:45.565Z,20.06
2019-05-08T02:19:45.662Z,19.98
2019-05-08T02:20:45.659Z,20.00
2019-05-08T02:21:45.716Z,19.95
2019-05-08T02:22:45.794Z,19.95
2019-05-08T02:23:45.785Z,20.09
2019-05-08T02:24:45.846Z,20.10
2019-05-08T02:25:45.880Z,20.03
2019-05-08T02:26:45.965Z,20.00
2019-05-08T02:27:45.971Z,19.98
2019-05-08T02:28:46.013Z,20.09
2019-05-08T02:29:46.076Z,20.03
2019-05-08T02:30:46.114Z,20.00
2019-05-08T02:31:46.141Z,20.12
2019-05-08T02:32:46.178Z,19.95
2019-05-08T02:33:46.230Z,20.08
2019-05-08T02:34:46.288Z,20.06
2019-05-08T02:35:46.312Z,20.09
2019-05-08T02:36:57.792Z,19.97
2019-05-08T02:37:46.450Z,20.09
2019-05-08T02:38:46.435Z,20.02
2019-05-08T02:39:46.493Z,20.00
2019-05-08T02:40:46.525Z,20.03
2019-05-08T02:41:46.613Z,20.16
2019-05-08T02:42:46.608Z,20.15
2019-05-08T02:43:46.648Z,20.00
2019-05-08T02:44:46.698Z,20.08
2019-05-08T02:45:49.598Z,20.02
2019-05-08T02:46:46.843Z,20.12
2019-05-08T02:47:46.861Z,20.09
2019-05-08T02:48:46.892Z,19.98
2019-05-08T02:49:46.940Z,20.06
2019-05-08T02:50:46.974Z,20.06
2019-05-08T02:51:47.018Z,20.06
2019-05-08T02:52:47.063Z,20.08
2019-05-08T02:53:50.089Z,20.05
2019-05-08T02:54:50.809Z,19.98
2019-05-08T02:55:47.203Z,19.98
2019-05-08T02:56:50.480Z,20.09
2019-05-08T02:57:50.528Z,20.10
2019-05-08T02:59:01.104Z,20.12
2019-05-08T02:59:50.188Z,20.02
2019-05-08T03:00:47.410Z,20.13
2019-05-08T03:01:50.233Z,20.13
2019-05-08T03:02:51.088Z,20.13
2019-05-08T03:03:50.627Z,20.12
2019-05-08T03:04:47.587Z,20.02
2019-05-08T03:05:50.351Z,20.05
2019-05-08T03:06:51.127Z,20.09
2019-05-08T03:07:50.595Z,20.00
2019-05-08T03:08:50.459Z,20.08
2019-05-08T03:09:47.825Z,20.00
2019-05-08T03:10:50.869Z,20.02
2019-05-08T03:11:50.709Z,20.03
2019-05-08T03:12:50.975Z,20.06
2019-05-08T03:13:50.403Z,20.02
2019-05-08T03:14:49.986Z,20.02
2019-05-08T03:15:50.618Z,20.02
2019-05-08T03:16:49.924Z,20.08
2019-05-08T03:17:50.523Z,20.18
2019-05-08T03:18:50.473Z,20.12
2019-05-08T03:19:51.064Z,20.10
2019-05-08T03:20:51.184Z,20.09
2019-05-08T03:21:50.462Z,20.13
2019-05-08T03:22:51.027Z,20.02
2019-05-08T03:23:51.628Z,20.13
2019-05-08T03:24:54.734Z,20.12
2019-05-08T03:25:50.552Z,20.13
2019-05-08T03:26:50.390Z,20.16
2019-05-08T03:27:50.945Z,20.16
2019-05-08T03:29:06.997Z,20.15
2019-05-08T03:29:50.349Z,20.18
2019-05-08T03:30:53.371Z,20.06
2019-05-08T03:31:53.600Z,20.12
2019-05-08T03:32:53.375Z,20.16
2019-05-08T03:33:53.655Z,20.16
2019-05-08T03:34:54.241Z,20.12
2019-05-08T03:35:53.926Z,20.13
2019-05-08T03:36:53.525Z,20.18
2019-05-08T03:37:50.396Z,20.24
2019-05-08T03:38:51.848Z,20.23
2019-05-08T03:39:50.914Z,20.24
2019-05-08T03:40:51.117Z,20.12
2019-05-08T03:41:51.247Z,20.15
2019-05-08T03:42:51.193Z,20.13
2019-05-08T03:43:50.048Z,20.12
2019-05-08T03:44:50.576Z,20.06
2019-05-08T03:45:51.068Z,20.10
2019-05-08T03:46:50.305Z,20.06
2019-05-08T03:47:51.465Z,20.10
2019-05-08T03:48:51.634Z,20.15
2019-05-08T03:49:50.023Z,20.12
2019-05-08T03:50:50.685Z,20.13
2019-05-08T03:51:50.536Z,20.13
2019-05-08T03:52:51.305Z,20.12
2019-05-08T03:53:50.368Z,20.20
2019-05-08T03:54:50.709Z,20.09
2019-05-08T03:55:50.526Z,20.15
2019-05-08T03:56:50.937Z,20.15
2019-05-08T03:57:51.925Z,20.09
2019-05-08T03:58:50.757Z,20.16
2019-05-08T03:59:51.478Z,20.09
2019-05-08T04:00:50.470Z,20.10
2019-05-08T04:01:50.389Z,20.00
2019-05-08T04:02:50.851Z,20.15
2019-05-08T04:03:50.544Z,20.13
2019-05-08T04:04:51.035Z,20.02
2019-05-08T04:05:50.980Z,20.12
2019-05-08T04:06:51.240Z,19.98
2019-05-08T04:07:51.422Z,20.10
2019-05-08T04:08:51.244Z,20.05
2019-05-08T04:09:50.610Z,20.09
2019-05-08T04:10:50.912Z,20.10
2019-05-08T04:11:51.412Z,20.06
2019-05-08T04:12:50.615Z,20.09
2019-05-08T04:13:50.615Z,20.02
2019-05-08T04:14:50.932Z,20.00
2019-05-08T04:15:50.777Z,20.05
2019-05-08T04:16:51.653Z,20.05
2019-05-08T04:17:50.829Z,19.97
2019-05-08T04:18:51.117Z,20.00
2019-05-08T04:19:51.457Z,20.03
2019-05-08T04:20:50.948Z,20.12
2019-05-08T04:21:51.059Z,20.00
2019-05-08T04:22:51.145Z,20.13
2019-05-08T04:23:51.076Z,20.18
2019-05-08T04:24:51.100Z,20.10
2019-05-08T04:25:51.118Z,20.09
2019-05-08T04:26:51.223Z,20.16
2019-05-08T04:27:51.331Z,20.18
2019-05-08T04:28:51.252Z,20.15
2019-05-08T04:29:57.130Z,20.09
2019-05-08T04:30:51.422Z,20.05
2019-05-08T04:31:51.483Z,20.13
2019-05-08T04:32:51.638Z,20.16
2019-05-08T04:33:51.672Z,20.15
2019-05-08T04:34:51.538Z,20.12
2019-05-08T04:35:51.617Z,20.05
2019-05-08T04:36:51.721Z,20.12
2019-05-08T04:37:51.695Z,20.12
2019-05-08T04:38:51.731Z,20.18
2019-05-08T04:39:51.759Z,20.24
2019-05-08T04:40:51.803Z,20.16
2019-05-08T04:41:51.879Z,20.21
2019-05-08T04:42:51.888Z,20.23
2019-05-08T04:43:52.073Z,20.18
2019-05-08T04:44:51.993Z,20.09
2019-05-08T04:45:52.075Z,20.13
2019-05-08T04:46:52.048Z,20.10
2019-05-08T04:47:52.130Z,20.18
2019-05-08T04:48:52.131Z,20.12
2019-05-08T04:49:52.191Z,20.12
2019-05-08T04:50:52.227Z,20.03
2019-05-08T04:51:52.482Z,20.08
2019-05-08T04:52:52.308Z,20.00
2019-05-08T04:53:52.370Z,20.08
2019-05-08T04:54:52.411Z,20.06
2019-05-08T04:55:52.416Z,19.94
2019-05-08T04:56:52.482Z,19.95
2019-05-08T04:57:52.536Z,20.00
2019-05-08T04:58:52.574Z,19.94
2019-05-08T05:00:07.496Z,19.98
2019-05-08T05:00:52.674Z,19.93
2019-05-08T05:01:52.685Z,19.94
2019-05-08T05:02:52.755Z,19.93
2019-05-08T05:03:52.791Z,19.94
2019-05-08T05:04:52.854Z,19.94
2019-05-08T05:05:52.862Z,20.00
2019-05-08T05:06:52.917Z,20.02
2019-05-08T05:07:52.982Z,20.02
2019-05-08T05:08:53.005Z,20.02
2019-05-08T05:09:53.074Z,20.06
2019-05-08T05:10:53.085Z,20.08
2019-05-08T05:11:53.145Z,20.10
2019-05-08T05:12:54.987Z,20.08
2019-05-08T05:13:53.244Z,19.98
2019-05-08T05:14:53.281Z,19.98
2019-05-08T05:15:53.364Z,20.02
2019-05-08T05:16:53.400Z,20.08
2019-05-08T05:17:53.436Z,20.13
2019-05-08T05:18:53.452Z,20.12
2019-05-08T05:19:53.494Z,20.12
2019-05-08T05:20:53.524Z,20.15
2019-05-08T05:21:53.593Z,20.10
2019-05-08T05:22:53.619Z,20.12
2019-05-08T05:23:53.673Z,20.09
2019-05-08T05:24:53.706Z,20.13
2019-05-08T05:25:53.742Z,20.03
2019-05-08T05:26:53.801Z,19.98
2019-05-08T05:27:53.889Z,20.08
2019-05-08T05:28:53.885Z,20.06
2019-05-08T05:29:53.927Z,20.12
2019-05-08T05:30:53.983Z,20.12
2019-05-08T05:31:54.027Z,20.02
2019-05-08T05:32:54.078Z,20.13
2019-05-08T05:33:54.088Z,19.98
2019-05-08T05:34:54.174Z,20.10
2019-05-08T05:35:54.171Z,20.13
2019-05-08T05:36:54.231Z,20.02
2019-05-08T05:37:54.269Z,20.08
2019-05-08T05:38:54.311Z,20.15
2019-05-08T05:39:54.364Z,20.15
2019-05-08T05:40:54.406Z,20.12
2019-05-08T05:41:54.462Z,20.13
2019-05-08T05:42:54.541Z,20.03
2019-05-08T05:43:54.551Z,20.06
2019-05-08T05:44:54.582Z,20.03
2019-05-08T05:45:54.619Z,20.06
2019-05-08T05:46:54.672Z,19.93
2019-05-08T05:47:54.711Z,19.90
2019-05-08T05:48:54.760Z,19.78
2019-05-08T05:49:54.792Z,19.80
2019-05-08T05:50:54.834Z,19.78
2019-05-08T05:51:54.898Z,19.70
2019-05-08T05:52:54.927Z,19.61
2019-05-08T05:53:54.981Z,19.63
2019-05-08T05:54:55.014Z,19.63
2019-05-08T05:55:55.088Z,19.51
2019-05-08T05:56:55.108Z,19.54
2019-05-08T05:57:55.138Z,19.46
2019-05-08T05:58:55.182Z,19.46
2019-05-08T05:59:55.248Z,19.43
2019-05-08T06:00:55.272Z,19.40
2019-05-08T06:01:55.318Z,19.43
2019-05-08T06:02:55.346Z,19.40
2019-05-08T06:03:55.383Z,19.32
2019-05-08T06:04:55.443Z,19.29
2019-05-08T06:05:55.507Z,19.25
2019-05-08T06:06:55.561Z,19.31
2019-05-08T06:07:55.600Z,19.35
2019-05-08T06:08:55.631Z,19.29
2019-05-08T06:09:55.718Z,19.29
2019-05-08T06:10:55.723Z,19.17
2019-05-08T06:11:55.767Z,19.13
2019-05-08T06:12:55.797Z,19.10
2019-05-08T06:13:55.845Z,19.06
2019-05-08T06:14:55.921Z,19.02
2019-05-08T06:15:55.916Z,18.97
2019-05-08T06:16:56.014Z,18.91
2019-05-08T06:17:56.018Z,18.92
2019-05-08T06:18:56.126Z,18.95
2019-05-08T06:19:56.087Z,18.92
2019-05-08T06:20:56.123Z,18.90
2019-05-08T06:21:56.163Z,18.98
2019-05-08T06:22:56.273Z,18.94
2019-05-08T06:23:56.259Z,18.92
2019-05-08T06:24:56.319Z,18.91
2019-05-08T06:25:56.352Z,18.91
2019-05-08T06:26:56.382Z,18.92
2019-05-08T06:27:56.431Z,18.82
2019-05-08T06:28:56.512Z,18.84
2019-05-08T06:29:56.547Z,18.79
2019-05-08T06:30:57.817Z,18.80
2019-05-08T06:31:56.598Z,18.90
2019-05-08T06:32:56.649Z,18.83
2019-05-08T06:33:56.706Z,18.87
2019-05-08T06:34:56.742Z,18.82
2019-05-08T06:35:56.776Z,18.76
2019-05-08T06:36:56.817Z,18.84
2019-05-08T06:37:59.080Z,18.74
2019-05-08T06:38:59.020Z,18.77
2019-05-08T06:39:59.239Z,18.80
2019-05-08T06:40:57.007Z,18.76
2019-05-08T06:41:57.051Z,18.83
2019-05-08T06:42:59.809Z,18.79
2019-05-08T06:43:57.142Z,18.84
2019-05-08T06:44:57.203Z,18.77
2019-05-08T06:45:59.093Z,18.77
2019-05-08T06:46:57.272Z,18.79
2019-05-08T06:47:59.751Z,18.76
2019-05-08T06:48:57.345Z,18.76
2019-05-08T06:50:01.406Z,18.73
2019-05-08T06:50:59.458Z,18.68
2019-05-08T06:51:57.474Z,18.74
2019-05-08T06:52:59.282Z,18.73
2019-05-08T06:53:59.541Z,18.79
2019-05-08T06:54:59.087Z,18.82
2019-05-08T06:55:59.346Z,18.83
2019-05-08T06:56:58.964Z,18.79
2019-05-08T06:57:59.693Z,18.73
2019-05-08T06:58:59.878Z,18.70
2019-05-08T06:59:57.826Z,18.73
2019-05-08T07:01:06.540Z,18.68
2019-05-08T07:01:59.414Z,18.68
2019-05-08T07:02:59.238Z,18.82
2019-05-08T07:04:02.667Z,18.74
2019-05-08T07:04:59.470Z,18.80
2019-05-08T07:05:59.764Z,18.74
2019-05-08T07:07:00.117Z,18.83
2019-05-08T07:08:00.239Z,18.79
2019-05-08T07:09:00.097Z,18.77
2019-05-08T07:09:59.886Z,18.72
2019-05-08T07:10:59.932Z,18.73
2019-05-08T07:12:00.035Z,18.72
2019-05-08T07:13:00.199Z,18.76
2019-05-08T07:14:00.200Z,18.72
2019-05-08T07:14:58.986Z,18.74
2019-05-08T07:15:59.905Z,18.77
2019-05-08T07:17:00.083Z,18.74
2019-05-08T07:17:59.226Z,18.77
2019-05-08T07:18:59.943Z,18.80
2019-05-08T07:20:00.188Z,18.74
2019-05-08T07:20:59.301Z,18.76
2019-05-08T07:22:00.376Z,18.73
2019-05-08T07:22:59.075Z,18.77
2019-05-08T07:23:59.471Z,18.70
2019-05-08T07:25:00.152Z,18.77
2019-05-08T07:26:00.102Z,18.72
2019-05-08T07:26:59.562Z,18.70
2019-05-08T07:27:59.325Z,18.82
2019-05-08T07:29:00.056Z,18.80
2019-05-08T07:29:59.119Z,18.76
2019-05-08T07:30:59.635Z,18.80
2019-05-08T07:32:00.251Z,18.72
2019-05-08T07:33:00.020Z,18.67
2019-05-08T07:34:02.662Z,18.73
2019-05-08T07:34:59.442Z,18.79
2019-05-08T07:35:59.776Z,18.72
2019-05-08T07:37:00.624Z,18.68
2019-05-08T07:37:59.459Z,18.55
2019-05-08T07:39:00.377Z,18.67
2019-05-08T07:39:59.542Z,18.59
2019-05-08T07:40:59.743Z,18.55
2019-05-08T07:41:59.984Z,18.57
2019-05-08T07:42:59.820Z,18.42
2019-05-08T07:44:00.257Z,18.39
2019-05-08T07:44:59.826Z,18.46
2019-05-08T07:45:59.875Z,18.39
2019-05-08T07:47:00.234Z,18.50
2019-05-08T07:47:59.898Z,18.43
2019-05-08T07:49:00.028Z,18.44
2019-05-08T07:50:00.273Z,18.40
2019-05-08T07:51:00.025Z,18.40
2019-05-08T07:52:00.253Z,18.50
2019-05-08T07:53:08.160Z,18.50
2019-05-08T07:54:00.708Z,18.54
2019-05-08T07:55:03.573Z,18.47
2019-05-08T07:56:00.232Z,18.52
2019-05-08T07:57:00.310Z,18.57
2019-05-08T07:58:00.319Z,18.47
2019-05-08T07:59:00.340Z,18.40
2019-05-08T08:00:00.407Z,18.42
2019-05-08T08:01:00.471Z,18.37
2019-05-08T08:02:00.730Z,18.34
2019-05-08T08:03:00.527Z,18.37
2019-05-08T08:04:00.585Z,18.36
2019-05-08T08:05:00.637Z,18.36
2019-05-08T08:06:00.666Z,18.37
2019-05-08T08:07:00.685Z,18.39
2019-05-08T08:08:03.468Z,18.33
2019-05-08T08:09:00.781Z,18.34
2019-05-08T08:10:00.823Z,18.28
2019-05-08T08:11:00.914Z,18.40
2019-05-08T08:12:00.905Z,18.37
2019-05-08T08:13:01.001Z,18.34
2019-05-08T08:14:00.995Z,18.31
2019-05-08T08:15:01.048Z,18.33
2019-05-08T08:16:01.107Z,18.25
2019-05-08T08:17:01.155Z,18.25
2019-05-08T08:18:01.182Z,18.24
2019-05-08T08:19:01.183Z,18.21
2019-05-08T08:20:01.267Z,18.22
2019-05-08T08:21:01.309Z,18.28
2019-05-08T08:22:01.349Z,18.18
2019-05-08T08:23:01.380Z,18.19
2019-05-08T08:24:03.138Z,18.19
2019-05-08T08:25:01.462Z,18.18
2019-05-08T08:26:02.304Z,18.12
2019-05-08T08:27:01.563Z,18.15
2019-05-08T08:28:01.590Z,18.18
2019-05-08T08:29:01.633Z,18.13
2019-05-08T08:30:01.676Z,18.15
2019-05-08T08:31:01.736Z,18.13
2019-05-08T08:32:04.398Z,18.07
2019-05-08T08:33:01.793Z,18.19
2019-05-08T08:34:01.859Z,18.15
2019-05-08T08:35:01.885Z,18.15
2019-05-08T08:36:01.941Z,18.04
2019-05-08T08:37:02.030Z,18.21
2019-05-08T08:38:02.000Z,18.03
2019-05-08T08:39:02.119Z,18.31
2019-05-08T08:40:02.158Z,18.10
2019-05-08T08:41:02.128Z,18.19
2019-05-08T08:42:02.773Z,18.13
2019-05-08T08:43:02.224Z,18.15
2019-05-08T08:44:02.295Z,18.15
2019-05-08T08:45:02.344Z,18.17
2019-05-08T08:46:02.339Z,18.07
2019-05-08T08:47:02.409Z,18.06
2019-05-08T08:48:02.448Z,18.03
2019-05-08T08:49:02.502Z,18.17
2019-05-08T08:50:02.552Z,17.91
2019-05-08T08:51:02.574Z,18.10
2019-05-08T08:52:15.124Z,18.09
2019-05-08T08:53:02.649Z,17.95
2019-05-08T08:54:02.749Z,18.03
2019-05-08T08:55:02.744Z,18.04
2019-05-08T08:56:02.768Z,18.09
2019-05-08T08:57:06.287Z,18.09
2019-05-08T08:58:02.877Z,18.03
2019-05-08T08:59:02.924Z,18.04
2019-05-08T09:00:02.948Z,18.03
2019-05-08T09:01:03.014Z,18.02
2019-05-08T09:02:15.920Z,18.04
2019-05-08T09:03:03.088Z,18.06
2019-05-08T09:04:03.113Z,18.06
2019-05-08T09:05:03.210Z,18.06
2019-05-08T09:06:03.231Z,18.06
2019-05-08T09:07:03.286Z,18.07
2019-05-08T09:08:03.327Z,18.12
2019-05-08T09:09:03.352Z,18.04
2019-05-08T09:10:03.392Z,18.07
2019-05-08T09:11:03.424Z,18.12
2019-05-08T09:12:03.492Z,18.15
2019-05-08T09:13:03.558Z,18.10
2019-05-08T09:14:04.022Z,18.15
2019-05-08T09:15:03.878Z,18.19
2019-05-08T09:16:03.643Z,18.17
2019-05-08T09:17:03.702Z,18.24
2019-05-08T09:18:03.763Z,18.28
2019-05-08T09:19:03.840Z,18.24
2019-05-08T09:20:04.410Z,18.19
2019-05-08T09:21:03.851Z,18.22
2019-05-08T09:22:04.010Z,18.28
2019-05-08T09:23:03.940Z,18.31
2019-05-08T09:24:03.968Z,18.43
2019-05-08T09:25:04.023Z,18.44
2019-05-08T09:26:04.082Z,18.34
2019-05-08T09:27:04.136Z,18.29
2019-05-08T09:28:04.142Z,18.31
2019-05-08T09:29:04.184Z,18.43
2019-05-08T09:30:04.259Z,18.37
2019-05-08T09:31:04.286Z,18.31
2019-05-08T09:32:04.334Z,18.29
2019-05-08T09:33:04.375Z,18.21
2019-05-08T09:34:04.423Z,18.24
2019-05-08T09:35:04.438Z,18.33
2019-05-08T09:36:04.492Z,18.29
2019-05-08T09:37:04.550Z,18.27
2019-05-08T09:38:04.580Z,18.37
2019-05-08T09:39:04.645Z,18.36
2019-05-08T09:40:04.688Z,18.43
2019-05-08T09:41:04.729Z,18.37
2019-05-08T09:42:05.258Z,18.39
2019-05-08T09:43:04.792Z,18.40
2019-05-08T09:44:04.859Z,18.36
2019-05-08T09:45:04.872Z,18.37
2019-05-08T09:46:04.976Z,18.44
2019-05-08T09:47:04.970Z,18.40
2019-05-08T09:48:05.040Z,18.42
2019-05-08T09:49:05.059Z,18.43
2019-05-08T09:50:05.098Z,18.37
2019-05-08T09:51:05.146Z,18.43
2019-05-08T09:52:05.199Z,18.49
2019-05-08T09:53:05.230Z,18.52
2019-05-08T09:54:05.263Z,18.57
2019-05-08T09:55:05.307Z,18.54
2019-05-08T09:56:05.369Z,18.52
2019-05-08T09:57:05.403Z,18.52
2019-05-08T09:58:05.455Z,18.54
2019-05-08T09:59:05.493Z,18.61
2019-05-08T10:00:05.532Z,18.57
2019-05-08T10:01:05.625Z,18.55
2019-05-08T10:02:05.675Z,18.67
2019-05-08T10:03:05.662Z,18.72
2019-05-08T10:04:05.730Z,18.67
2019-05-08T10:05:05.747Z,18.76
2019-05-08T10:06:05.787Z,18.68
2019-05-08T10:07:05.832Z,18.79
2019-05-08T10:08:05.897Z,18.83
2019-05-08T10:09:05.927Z,18.72
2019-05-08T10:10:05.956Z,18.80
2019-05-08T10:11:06.018Z,18.72
2019-05-08T10:12:06.054Z,18.82
2019-05-08T10:13:06.100Z,18.84
2019-05-08T10:14:06.146Z,18.79
2019-05-08T10:15:06.206Z,18.87
2019-05-08T10:16:06.270Z,18.87
2019-05-08T10:17:06.272Z,18.87
2019-05-08T10:18:06.313Z,18.83
2019-05-08T10:19:06.366Z,18.87
2019-05-08T10:20:06.398Z,18.87
2019-05-08T10:21:11.343Z,18.90
2019-05-08T10:22:06.479Z,18.91
2019-05-08T10:23:06.530Z,18.92
2019-05-08T10:24:06.582Z,18.90
2019-05-08T10:25:07.115Z,18.79
2019-05-08T10:26:06.679Z,18.91
2019-05-08T10:27:06.702Z,18.94
2019-05-08T10:28:06.792Z,18.91
2019-05-08T10:29:06.832Z,18.90
2019-05-08T10:30:09.770Z,18.95
2019-05-08T10:31:09.266Z,18.91
2019-05-08T10:32:06.932Z,18.94
2019-05-08T10:33:10.040Z,18.79
2019-05-08T10:34:09.474Z,18.90
2019-05-08T10:35:07.068Z,18.90
2019-05-08T10:36:10.079Z,18.92
2019-05-08T10:37:07.155Z,18.92
2019-05-08T10:38:07.197Z,18.94
2019-05-08T10:39:09.610Z,19.17
2019-05-08T10:40:07.275Z,19.39
2019-05-08T10:41:10.004Z,19.57
2019-05-08T10:42:07.376Z,19.66
2019-05-08T10:43:09.729Z,19.69
2019-05-08T10:44:09.422Z,19.80
2019-05-08T10:45:09.119Z,19.79
2019-05-08T10:46:09.847Z,19.90
2019-05-08T10:47:10.318Z,19.94
2019-05-08T10:48:10.016Z,20.03
2019-05-08T10:49:09.283Z,20.05
2019-05-08T10:50:07.707Z,20.31
2019-05-08T10:51:09.955Z,20.25
2019-05-08T10:52:10.058Z,20.25
2019-05-08T10:53:10.281Z,20.33
2019-05-08T10:54:09.667Z,20.33
2019-05-08T10:55:10.996Z,20.51
2019-05-08T10:56:09.541Z,20.42
2019-05-08T10:57:10.709Z,20.31
2019-05-08T10:58:09.522Z,20.42
2019-05-08T10:59:09.617Z,20.38
2019-05-08T11:00:21.219Z,20.34
2019-05-08T11:01:09.213Z,20.35
2019-05-08T11:02:10.563Z,20.53
2019-05-08T11:03:18.654Z,20.53
2019-05-08T11:04:09.727Z,20.62
2019-05-08T11:05:10.141Z,20.71
2019-05-08T11:06:09.834Z,20.77
2019-05-08T11:07:11.017Z,20.84
2019-05-08T11:08:19.856Z,20.93
2019-05-08T11:09:10.148Z,21.01
2019-05-08T11:10:09.917Z,21.04
2019-05-08T11:11:09.964Z,21.23
2019-05-08T11:12:10.264Z,21.38
2019-05-08T11:13:09.781Z,21.34
2019-05-08T11:14:09.574Z,21.39
2019-05-08T11:15:09.410Z,21.41
2019-05-08T11:16:09.469Z,21.41
2019-05-08T11:17:09.598Z,21.41
2019-05-08T11:18:09.616Z,21.45
2019-05-08T11:19:09.887Z,21.50
2019-05-08T11:20:10.393Z,21.48
2019-05-08T11:21:10.273Z,21.38
2019-05-08T11:22:09.902Z,21.46
2019-05-08T11:23:09.379Z,21.39
2019-05-08T11:24:09.933Z,21.48
2019-05-08T11:25:10.272Z,21.42
2019-05-08T11:26:09.476Z,21.41
2019-05-08T11:27:10.432Z,21.41
2019-05-08T11:28:09.657Z,21.35
2019-05-08T11:29:10.426Z,21.29
2019-05-08T11:30:11.393Z,21.16
2019-05-08T11:31:09.861Z,21.14
2019-05-08T11:32:10.412Z,21.09
2019-05-08T11:33:10.296Z,21.06
2019-05-08T11:34:11.797Z,21.14
2019-05-08T11:35:09.853Z,21.06
2019-05-08T11:36:10.137Z,21.11
2019-05-08T11:37:10.315Z,21.11
2019-05-08T11:38:09.989Z,21.16
2019-05-08T11:39:10.226Z,21.11
2019-05-08T11:40:09.984Z,21.26
2019-05-08T11:41:10.367Z,21.26
2019-05-08T11:42:10.114Z,21.29
2019-05-08T11:43:10.110Z,21.38
2019-05-08T11:44:10.185Z,21.41
2019-05-08T11:45:10.215Z,21.57
2019-05-08T11:46:10.265Z,21.67
2019-05-08T11:47:10.312Z,21.78
2019-05-08T11:48:11.250Z,21.83
2019-05-08T11:49:10.390Z,21.83
2019-05-08T11:50:10.636Z,22.17
2019-05-08T11:51:10.494Z,22.56
2019-05-08T11:52:11.035Z,22.62
2019-05-08T11:53:11.219Z,22.62
2019-05-08T11:54:10.632Z,22.64
2019-05-08T11:55:10.708Z,22.67
2019-05-08T11:56:10.704Z,22.59
2019-05-08T11:57:10.770Z,22.50
2019-05-08T11:58:12.951Z,22.49
2019-05-08T11:59:10.833Z,22.56
2019-05-08T12:00:10.910Z,22.43
2019-05-08T12:01:22.841Z,22.52
2019-05-08T12:02:11.006Z,22.44
2019-05-08T12:03:11.033Z,22.41
2019-05-08T12:04:11.083Z,22.27
2019-05-08T12:05:11.132Z,22.14
2019-05-08T12:06:11.162Z,22.07
2019-05-08T12:07:11.229Z,21.95
2019-05-08T12:08:11.261Z,22.04
2019-05-08T12:09:11.810Z,21.99
2019-05-08T12:10:11.372Z,22.14
2019-05-08T12:11:11.436Z,22.32
2019-05-08T12:12:11.444Z,22.56
2019-05-08T12:13:11.497Z,22.62
2019-05-08T12:14:11.542Z,22.64
2019-05-08T12:15:11.586Z,22.64
2019-05-08T12:16:11.660Z,22.60
2019-05-08T12:17:25.407Z,22.67
2019-05-08T12:18:11.725Z,22.72
2019-05-08T12:19:11.785Z,22.69
2019-05-08T12:20:11.841Z,22.59
2019-05-08T12:21:11.923Z,22.47
2019-05-08T12:22:11.910Z,22.38
2019-05-08T12:23:11.945Z,22.43
2019-05-08T12:24:12.048Z,22.41
2019-05-08T12:25:12.074Z,22.54
2019-05-08T12:26:12.125Z,22.54
2019-05-08T12:27:12.140Z,22.53
2019-05-08T12:28:12.208Z,22.65
2019-05-08T12:29:12.231Z,22.72
2019-05-08T12:30:12.298Z,22.77
2019-05-08T12:31:12.325Z,22.89
2019-05-08T12:32:12.401Z,23.12
2019-05-08T12:33:12.418Z,23.31
2019-05-08T12:34:13.375Z,23.45
2019-05-08T12:35:12.526Z,23.53
2019-05-08T12:36:12.574Z,23.42
2019-05-08T12:37:12.673Z,23.40
2019-05-08T12:38:12.663Z,23.45
2019-05-08T12:39:12.739Z,23.31
2019-05-08T12:40:12.816Z,23.19
2019-05-08T12:41:12.815Z,23.14
2019-05-08T12:42:12.868Z,23.07
2019-05-08T12:43:12.908Z,23.08
2019-05-08T12:44:12.963Z,23.07
2019-05-08T12:45:13.006Z,23.14
2019-05-08T12:46:13.062Z,23.32
2019-05-08T12:47:13.090Z,23.65
2019-05-08T12:48:13.153Z,23.87
2019-05-08T12:49:13.189Z,23.98
2019-05-08T12:50:13.261Z,24.13
2019-05-08T12:51:13.279Z,24.14
2019-05-08T12:52:13.390Z,23.87
2019-05-08T12:53:13.378Z,23.70